Time;durP1;ratioP1;P1;durP2;ratioP2;P2;SDS_P1;SDS_P2;PMS_P1;PMS_P2;Temp;Humidity;BMP_temperature;BMP_pressure;BME280_temperature;BME280_humidity;BME280_pressure;Samples;Min_cycle;Max_cycle;Signal;HPM_P1;HPM_P2
2023/06/22 00:00:51;;;;;;;21.02;12.50;;;;;;;21.77;64.76;102086.00;5033875;28;20516;-45
2023/06/22 00:03:22;;;;;;;21.65;13.15;;;;;;;21.79;64.66;102081.56;5030405;28;20045;-47
2023/06/22 00:05:48;;;;;;;22.25;13.45;;;;;;;21.75;64.52;102087.84;5028249;28;20038;-48
2023/06/22 00:08:14;;;;;;;22.15;13.00;;;;;;;21.70;64.92;102084.38;5029451;28;20087;-52
2023/06/22 00:10:40;;;;;;;21.60;12.43;;;;;;;21.66;65.09;102081.75;5029928;28;20451;-52
2023/06/22 00:13:07;;;;;;;22.60;13.68;;;;;;;21.71;64.85;102080.78;5030060;28;20037;-45
2023/06/22 00:15:32;;;;;;;21.65;13.18;;;;;;;21.72;65.10;102068.41;5029835;28;20112;-47
2023/06/22 00:17:58;;;;;;;22.35;13.40;;;;;;;21.70;64.92;102080.84;5031013;28;20112;-49
2023/06/22 00:20:27;;;;;;;23.60;13.80;;;;;;;21.61;64.57;102081.81;5030429;28;20038;-45
2023/06/22 00:22:56;;;;;;;21.33;13.68;;;;;;;21.60;65.15;102069.44;5030419;28;20044;-49
2023/06/22 00:25:22;;;;;;;24.60;13.63;;;;;;;21.58;65.50;102073.91;5029264;28;20044;-48
2023/06/22 00:27:47;;;;;;;23.15;13.10;;;;;;;21.60;65.01;102077.41;5029512;28;20049;-47
2023/06/22 00:30:13;;;;;;;21.17;12.98;;;;;;;21.55;65.28;102073.06;5029656;28;20037;-49
2023/06/22 00:32:38;;;;;;;20.17;12.55;;;;;;;21.54;65.13;102080.13;5029413;28;20041;-52
2023/06/22 00:35:05;;;;;;;24.38;13.55;;;;;;;21.55;65.04;102073.06;5029546;28;20029;-48
2023/06/22 00:37:30;;;;;;;22.58;13.55;;;;;;;21.48;65.02;102066.06;5028703;28;20130;-50
2023/06/22 00:39:56;;;;;;;21.90;13.55;;;;;;;21.43;65.37;102066.13;5028871;28;20121;-46
2023/06/22 00:42:22;;;;;;;23.33;13.18;;;;;;;21.42;65.65;102062.59;5029282;28;20087;-50
2023/06/22 00:44:47;;;;;;;24.73;13.68;;;;;;;21.40;65.65;102064.41;5029515;28;20040;-47
2023/06/22 00:47:17;;;;;;;20.88;12.95;;;;;;;21.42;65.57;102062.59;5029033;28;20045;-47
2023/06/22 00:49:43;;;;;;;21.90;13.15;;;;;;;21.41;65.80;102067.91;5029019;28;20033;-43
2023/06/22 00:52:13;;;;;;;20.13;12.50;;;;;;;21.41;65.64;102062.59;5029615;28;20175;-48
2023/06/22 00:54:43;;;;;;;21.42;12.98;;;;;;;21.38;65.52;102055.59;5028935;28;20107;-48
2023/06/22 00:57:10;;;;;;;25.00;14.88;;;;;;;21.35;65.55;102054.72;5029041;28;20184;-48
2023/06/22 00:59:36;;;;;;;22.63;13.63;;;;;;;21.25;65.88;102053.09;5029356;28;20029;-44
2023/06/22 01:02:01;;;;;;;24.05;13.82;;;;;;;21.30;65.75;102049.50;5028255;28;20149;-48
2023/06/22 01:04:35;;;;;;;24.23;14.05;;;;;;;21.24;66.01;102048.69;5029199;28;20396;-50
2023/06/22 01:07:13;;;;;;;;;;;;;;;21.23;66.30;102045.16;5029402;28;20115;-45
2023/06/22 01:09:51;;;;;;;26.92;15.32;;;;;;;21.16;66.73;102047.91;5029077;28;19921;-45
2023/06/22 01:12:18;;;;;;;28.55;16.25;;;;;;;21.08;67.54;102047.97;5029069;28;20052;-46
2023/06/22 01:14:52;;;;;;;28.50;17.00;;;;;;;21.12;67.13;102054.09;5029649;28;20514;-46
2023/06/22 01:17:19;;;;;;;;;;;;;;;21.10;67.49;102055.91;5029200;28;20068;-44
2023/06/22 01:19:55;;;;;;;26.60;15.45;;;;;;;21.09;66.91;102054.16;5029803;28;20398;-47
2023/06/22 01:22:23;;;;;;;25.38;14.93;;;;;;;21.01;67.12;102060.41;5029015;28;20057;-46
2023/06/22 01:25:10;;;;;;;24.95;15.07;;;;;;;21.06;66.96;102057.69;5029738;28;20049;-46
2023/06/22 01:28:05;;;;;;;24.65;14.93;;;;;;;21.03;67.08;102055.09;5029559;28;20117;-50
2023/06/22 01:30:33;;;;;;;30.30;16.95;;;;;;;20.64;68.64;102051.06;5031132;28;20166;-48
2023/06/22 01:33:02;;;;;;;30.35;16.42;;;;;;;20.75;68.33;102040.34;5029676;28;20116;-47
2023/06/22 01:35:28;;;;;;;27.17;15.77;;;;;;;20.79;68.24;102044.75;5029208;28;20041;-46
2023/06/22 01:37:55;;;;;;;27.20;15.07;;;;;;;20.86;67.70;102036.69;5029117;28;20037;-48
2023/06/22 01:40:21;;;;;;;28.75;16.55;;;;;;;20.74;68.20;102047.41;5029016;28;20045;-49
2023/06/22 01:42:48;;;;;;;27.15;16.05;;;;;;;20.84;67.70;102042.94;5029366;28;20030;-43
2023/06/22 01:45:14;;;;;;;28.95;16.50;;;;;;;20.80;68.01;102044.72;5029360;28;20037;-45
2023/06/22 01:47:40;;;;;;;28.60;15.25;;;;;;;20.78;68.10;102040.34;5028327;28;20037;-48
2023/06/22 01:50:06;;;;;;;26.00;15.70;;;;;;;20.74;67.96;102038.63;5029252;28;20040;-47
2023/06/22 01:52:33;;;;;;;25.98;14.95;;;;;;;20.75;68.31;102043.00;5029832;28;20069;-44
2023/06/22 01:54:59;;;;;;;26.95;14.20;;;;;;;20.78;67.90;102045.63;5032662;28;20658;-47
2023/06/22 01:57:26;;;;;;;28.00;15.55;;;;;;;20.77;67.80;102039.47;5032099;28;20048;-51
2023/06/22 02:00:13;;;;;;;25.77;14.80;;;;;;;20.71;67.93;102050.13;5032536;28;20034;-46
2023/06/22 02:03:02;;;;;;;29.13;15.48;;;;;;;20.68;68.08;102047.47;5032256;28;21089;-51
2023/06/22 02:05:34;;;;;;;27.15;15.27;;;;;;;20.68;68.01;102036.88;5032147;28;20479;-47
2023/06/22 02:08:07;;;;;;;31.65;17.10;;;;;;;20.62;68.22;102029.00;5032439;28;20034;-48
2023/06/22 02:10:34;;;;;;;30.20;16.23;;;;;;;20.53;69.16;102031.75;5031961;28;20037;-45
2023/06/22 02:13:02;;;;;;;25.98;15.10;;;;;;;20.60;68.79;102030.81;5034417;28;20037;-47
2023/06/22 02:15:28;;;;;;;27.23;14.88;;;;;;;20.64;68.49;102032.53;5033124;28;20064;-50
2023/06/22 02:17:54;;;;;;;26.30;14.50;;;;;;;20.61;68.56;102035.22;5033423;28;20488;-50
2023/06/22 02:20:20;;;;;;;28.30;15.05;;;;;;;20.59;68.23;102035.22;5034006;28;20133;-46
2023/06/22 02:22:45;;;;;;;27.00;15.50;;;;;;;20.57;68.19;102030.81;5035746;28;20040;-45
2023/06/22 02:25:11;;;;;;;24.80;14.15;;;;;;;20.58;68.24;102029.94;5034426;28;20037;-46
2023/06/22 02:27:40;;;;;;;24.40;14.10;;;;;;;20.61;68.00;102036.06;5032558;28;20040;-51
2023/06/22 02:30:07;;;;;;;25.70;14.90;;;;;;;20.62;67.68;102029.00;5033197;28;20034;-46
2023/06/22 02:32:34;;;;;;;26.38;14.98;;;;;;;20.54;67.99;102030.88;5031935;28;20061;-50
2023/06/22 02:34:59;;;;;;;25.88;14.75;;;;;;;20.51;68.23;102029.09;5032145;28;20488;-46
2023/06/22 02:37:25;;;;;;;26.05;15.65;;;;;;;20.53;68.15;102027.34;5031436;28;20124;-52
2023/06/22 02:39:50;;;;;;;26.45;14.60;;;;;;;20.55;68.22;102020.22;5032350;28;20036;-44
2023/06/22 02:42:20;;;;;;;27.52;14.88;;;;;;;20.54;68.58;102014.97;5031988;28;20029;-49
2023/06/22 02:44:45;;;;;;;28.17;15.15;;;;;;;20.50;68.68;102018.50;5032517;28;20137;-46
2023/06/22 02:47:11;;;;;;;28.95;15.85;;;;;;;20.51;68.57;102020.28;5031994;28;20045;-45
2023/06/22 02:49:36;;;;;;;28.00;14.98;;;;;;;20.53;68.42;102022.03;5031269;28;20025;-46
2023/06/22 02:52:01;;;;;;;26.00;14.75;;;;;;;20.52;68.42;102030.00;5032289;28;20522;-48
2023/06/22 02:54:27;;;;;;;25.85;14.77;;;;;;;20.53;68.52;102021.16;5030885;28;20163;-47
2023/06/22 02:56:52;;;;;;;29.67;15.73;;;;;;;20.49;68.56;102022.09;5031390;28;20026;-48
2023/06/22 02:59:21;;;;;;;28.73;15.95;;;;;;;20.46;68.52;102022.97;5029738;28;20052;-49
2023/06/22 03:01:46;;;;;;;28.23;15.57;;;;;;;20.46;68.47;102024.75;5033294;28;20037;-46
2023/06/22 03:04:13;;;;;;;26.52;14.73;;;;;;;20.46;68.22;102025.63;5032336;28;20084;-46
2023/06/22 03:06:40;;;;;;;29.52;16.90;;;;;;;20.40;68.78;102030.09;5032476;28;20890;-45
2023/06/22 03:09:05;;;;;;;30.80;16.80;;;;;;;20.41;68.77;102029.22;5033296;28;20087;-44
2023/06/22 03:11:32;;;;;;;29.98;16.58;;;;;;;20.39;68.87;102030.97;5032528;28;20033;-45
2023/06/22 03:13:58;;;;;;;28.60;16.02;;;;;;;20.37;68.88;102036.28;5032540;28;20120;-47
2023/06/22 03:16:23;;;;;;;29.63;16.38;;;;;;;20.34;68.80;102031.03;5031158;28;20036;-45
2023/06/22 03:18:49;;;;;;;29.35;15.70;;;;;;;20.39;68.58;102015.97;5031312;28;20029;-50
2023/06/22 03:21:15;;;;;;;29.52;16.15;;;;;;;20.39;68.52;102007.16;5030413;28;20048;-47
2023/06/22 03:23:41;;;;;;;29.23;15.55;;;;;;;20.38;68.72;102003.63;5030700;28;20431;-44
2023/06/22 03:26:06;;;;;;;28.13;15.68;;;;;;;20.36;68.87;101999.25;5030750;28;20026;-45
2023/06/22 03:28:31;;;;;;;29.95;15.95;;;;;;;20.33;68.90;102000.13;5030309;28;20045;-46
2023/06/22 03:30:58;;;;;;;29.13;16.13;;;;;;;20.33;68.90;101996.59;5030739;28;20034;-46
2023/06/22 03:33:23;;;;;;;27.90;15.93;;;;;;;20.31;68.84;101996.56;5030071;28;20034;-48
2023/06/22 03:35:49;;;;;;;30.90;16.63;;;;;;;20.29;68.92;101997.50;5030338;28;20037;-48
2023/06/22 03:38:16;;;;;;;30.10;15.75;;;;;;;20.30;69.01;102001.91;5030978;28;20061;-44
2023/06/22 03:40:42;;;;;;;29.33;15.43;;;;;;;20.30;68.71;102000.16;5030807;28;20033;-49
2023/06/22 03:43:07;;;;;;;27.80;14.70;;;;;;;20.33;68.62;101996.59;5030381;28;20038;-46
2023/06/22 03:45:33;;;;;;;30.23;17.02;;;;;;;20.27;68.92;102002.81;5029551;28;20040;-49
2023/06/22 03:47:58;;;;;;;31.23;16.33;;;;;;;20.25;69.14;102000.16;5030041;28;20091;-53
2023/06/22 03:50:23;;;;;;;34.05;17.38;;;;;;;20.27;69.38;101997.50;5029731;28;20141;-49
2023/06/22 03:52:48;;;;;;;30.30;15.88;;;;;;;20.31;69.25;101995.72;5030345;28;20037;-46
2023/06/22 03:55:14;;;;;;;29.50;15.77;;;;;;;20.30;69.32;101993.97;5029633;28;20500;-50
2023/06/22 03:57:39;;;;;;;29.65;15.80;;;;;;;20.34;69.20;101995.72;5029796;28;20036;-48
2023/06/22 04:00:05;;;;;;;29.08;14.98;;;;;;;20.40;69.06;101991.25;5030069;28;20037;-51
2023/06/22 04:02:31;;;;;;;28.00;15.30;;;;;;;20.40;69.39;101993.00;5028464;28;20033;-50
2023/06/22 04:04:56;;;;;;;26.42;14.38;;;;;;;20.48;69.28;101996.47;5030386;28;20160;-46
2023/06/22 04:07:22;;;;;;;30.73;16.00;;;;;;;20.47;69.62;101990.31;5029411;28;20034;-45
2023/06/22 04:09:47;;;;;;;29.88;16.00;;;;;;;20.54;69.73;101980.53;5030108;28;20490;-46
2023/06/22 04:12:13;;;;;;;30.15;15.43;;;;;;;20.65;69.59;101983.94;5030129;28;20120;-49
2023/06/22 04:14:38;;;;;;;31.38;15.93;;;;;;;20.69;69.42;101988.28;5028931;28;20038;-48
2023/06/22 04:17:04;;;;;;;27.40;14.68;;;;;;;20.79;69.61;101989.97;5029441;28;20022;-46
2023/06/22 04:19:29;;;;;;;29.75;16.45;;;;;;;20.84;69.32;101988.16;5029127;28;20099;-46
2023/06/22 04:21:54;;;;;;;28.50;15.63;;;;;;;20.87;69.33;101989.88;5030782;28;20604;-47
2023/06/22 04:24:20;;;;;;;31.30;16.65;;;;;;;20.93;69.38;101993.31;5030839;28;20048;-51
2023/06/22 04:26:46;;;;;;;35.92;18.60;;;;;;;21.05;69.41;101998.47;5030593;28;20038;-46
2023/06/22 04:29:12;;;;;;;31.33;16.55;;;;;;;21.22;69.36;102006.28;5029705;28;20124;-55
2023/06/22 04:31:38;;;;;;;32.30;17.38;;;;;;;21.35;69.06;101991.94;5028154;28;20612;-50
2023/06/22 04:34:08;;;;;;;32.30;17.30;;;;;;;21.38;68.86;101993.69;5029872;28;20037;-48
2023/06/22 04:36:40;;;;;;;29.48;17.02;;;;;;;21.47;69.32;101990.91;5028791;28;20038;-49
2023/06/22 04:39:11;;;;;;;28.83;16.20;;;;;;;21.67;68.87;101991.50;5030135;28;20056;-50
2023/06/22 04:41:43;;;;;;;31.88;18.17;;;;;;;21.74;69.04;101998.47;5029891;28;20032;-47
2023/06/22 04:44:26;;;;;;;31.63;18.08;;;;;;;21.87;68.54;101996.50;5028543;28;20034;-45
2023/06/22 04:47:08;;;;;;;28.53;17.20;;;;;;;22.20;68.47;101992.47;5029612;28;20365;-44
2023/06/22 04:49:35;;;;;;;32.05;17.65;;;;;;;21.78;68.61;101993.97;5029588;28;20042;-48
2023/06/22 04:52:06;;;;;;;30.52;17.38;;;;;;;22.06;68.10;102002.44;5030151;28;20036;-50
2023/06/22 04:54:34;;;;;;;27.17;16.33;;;;;;;22.30;67.94;102002.03;5029397;28;20037;-46
2023/06/22 04:57:05;;;;;;;29.80;16.73;;;;;;;22.64;67.09;101989.00;5029771;28;20029;-49
2023/06/22 04:59:31;;;;;;;25.65;16.13;;;;;;;22.82;66.24;101987.81;5029272;28;20497;-48
2023/06/22 05:02:02;;;;;;;23.90;15.38;;;;;;;23.19;65.34;101991.47;5030053;28;20079;-45
2023/06/22 05:04:31;;;;;;;25.60;15.85;;;;;;;23.09;64.40;101987.25;5029209;28;20041;-50
2023/06/22 05:06:56;;;;;;;24.73;15.38;;;;;;;23.32;64.05;101997.41;5029452;28;20503;-49
2023/06/22 05:09:22;;;;;;;26.20;16.30;;;;;;;23.44;63.26;101999.81;5029336;28;20038;-49
2023/06/22 05:11:47;;;;;;;24.35;14.73;;;;;;;23.60;63.60;101993.28;5029828;28;20156;-45
2023/06/22 05:14:13;;;;;;;21.90;13.98;;;;;;;23.93;63.67;101988.94;5028773;28;20038;-49
2023/06/22 05:16:43;;;;;;;21.33;14.00;;;;;;;24.32;62.22;101987.09;5030530;28;20033;-47
2023/06/22 05:19:09;;;;;;;25.23;16.30;;;;;;;25.14;58.00;101991.94;5031290;28;20044;-48
2023/06/22 05:21:34;;;;;;;24.95;17.38;;;;;;;26.04;54.19;101980.25;5030775;28;20033;-51
2023/06/22 05:24:02;;;;;;;19.77;14.45;;;;;;;27.71;51.01;101989.31;5029976;28;20091;-51
2023/06/22 05:26:28;;;;;;;27.30;17.80;;;;;;;28.75;45.24;101983.13;5030530;28;20038;-47
2023/06/22 05:28:53;;;;;;;24.25;17.80;;;;;;;28.15;47.23;101982.16;5034023;28;20037;-46
2023/06/22 05:31:22;;;;;;;23.00;16.13;;;;;;;27.82;47.37;101979.00;5035881;28;20105;-51
2023/06/22 05:33:49;;;;;;;20.98;15.05;;;;;;;27.67;48.61;101985.00;5034070;28;20056;-48
2023/06/22 05:36:15;;;;;;;29.77;19.45;;;;;;;26.73;49.87;101983.22;5034152;28;20040;-51
2023/06/22 05:38:41;;;;;;;22.73;15.60;;;;;;;26.72;50.47;101985.00;5033141;28;20399;-52
2023/06/22 05:41:07;;;;;;;24.25;16.70;;;;;;;26.37;51.77;101985.38;5032703;28;20025;-49
2023/06/22 05:43:33;;;;;;;27.10;16.90;;;;;;;26.22;53.00;101989.44;5032152;28;20429;-46
2023/06/22 05:46:00;;;;;;;25.83;17.17;;;;;;;26.43;52.74;101987.84;5032279;28;20120;-48
2023/06/22 05:48:26;;;;;;;22.02;15.32;;;;;;;26.63;51.81;101993.38;5031876;28;20116;-53
2023/06/22 05:50:51;;;;;;;24.65;16.90;;;;;;;26.72;51.47;101993.03;5032395;28;20146;-48
2023/06/22 05:53:16;;;;;;;23.63;15.52;;;;;;;27.46;48.71;101989.38;5032149;28;20034;-48
2023/06/22 05:55:42;;;;;;;24.38;15.82;;;;;;;27.57;48.41;101980.97;5031937;28;20033;-50
2023/06/22 05:58:08;;;;;;;22.20;15.20;;;;;;;27.54;48.20;101987.31;5032161;28;20120;-48
2023/06/22 06:00:33;;;;;;;20.88;14.02;;;;;;;27.96;48.25;101989.19;5031972;28;20042;-48
2023/06/22 06:03:03;;;;;;;24.08;16.88;;;;;;;27.93;48.89;101983.97;5032435;28;20416;-47
2023/06/22 06:05:28;;;;;;;21.92;15.73;;;;;;;28.85;45.88;101985.31;5032136;28;20034;-49
2023/06/22 06:07:54;;;;;;;20.98;14.00;;;;;;;29.96;43.49;101979.19;5032005;28;20526;-47
2023/06/22 06:10:19;;;;;;;21.10;15.20;;;;;;;30.84;39.62;101977.28;5031609;28;20132;-48
2023/06/22 06:12:44;;;;;;;19.67;14.13;;;;;;;30.90;40.74;101977.84;5032029;28;20029;-48
2023/06/22 06:15:10;;;;;;;21.30;14.80;;;;;;;30.84;39.34;101972.78;5032058;28;20037;-49
2023/06/22 06:17:35;;;;;;;22.40;14.40;;;;;;;30.65;41.22;101974.72;5031321;28;20500;-51
2023/06/22 06:20:01;;;;;;;15.48;12.40;;;;;;;31.48;39.77;101982.69;5031983;28;20091;-46
2023/06/22 06:22:26;;;;;;;19.42;13.25;;;;;;;30.68;40.75;101977.22;5031928;28;20060;-49
2023/06/22 06:24:51;;;;;;;16.13;10.88;;;;;;;31.52;39.37;101972.63;5032401;28;20032;-46
2023/06/22 06:27:18;;;;;;;14.38;11.07;;;;;;;31.47;38.77;101978.28;5031416;28;20041;-48
2023/06/22 06:29:45;;;;;;;15.02;10.82;;;;;;;31.48;37.74;101971.91;5032034;28;20495;-50
2023/06/22 06:32:11;;;;;;;15.48;11.20;;;;;;;31.11;38.88;101981.19;5031841;28;20060;-47
2023/06/22 06:34:36;;;;;;;16.58;10.70;;;;;;;30.83;40.20;101970.16;5031180;28;20033;-48
2023/06/22 06:37:01;;;;;;;18.45;13.32;;;;;;;29.99;40.86;101962.91;5031209;28;20125;-50
2023/06/22 06:39:27;;;;;;;18.70;13.00;;;;;;;29.64;42.79;101976.22;5029894;28;20086;-48
2023/06/22 06:41:52;;;;;;;18.98;12.40;;;;;;;30.52;40.57;101971.78;5031690;28;20276;-51
2023/06/22 06:44:17;;;;;;;20.55;11.43;;;;;;;30.76;40.87;101969.63;5031283;28;20040;-49
2023/06/22 06:46:43;;;;;;;16.60;12.73;;;;;;;30.71;40.35;101963.63;5030893;28;20045;-50
2023/06/22 06:49:08;;;;;;;17.02;12.75;;;;;;;30.46;41.46;101963.13;5031495;28;20400;-47
2023/06/22 06:51:33;;;;;;;15.43;11.50;;;;;;;30.79;40.85;101958.69;5030673;28;20041;-46
2023/06/22 06:53:59;;;;;;;16.90;12.45;;;;;;;30.66;40.90;101960.31;5031183;28;20437;-50
2023/06/22 06:56:24;;;;;;;14.60;10.00;;;;;;;31.58;38.87;101962.38;5030300;28;20646;-49
2023/06/22 06:58:50;;;;;;;16.30;11.68;;;;;;;30.63;40.07;101961.31;5031164;28;20124;-45
2023/06/22 07:01:16;;;;;;;13.25;10.18;;;;;;;31.69;37.82;101953.69;5030839;28;20038;-49
2023/06/22 07:03:41;;;;;;;16.65;11.20;;;;;;;31.60;38.23;101948.81;5031068;28;20056;-49
2023/06/22 07:06:08;;;;;;;13.20;9.80;;;;;;;32.60;35.45;101956.31;5030506;28;20416;-48
2023/06/22 07:08:35;;;;;;;13.30;8.15;;;;;;;32.57;34.38;101946.56;5030483;28;20051;-47
2023/06/22 07:11:00;;;;;;;11.45;8.43;;;;;;;32.99;33.51;101953.84;5030809;28;20091;-49
2023/06/22 07:13:26;;;;;;;11.75;8.15;;;;;;;32.32;35.06;101950.88;5030829;28;20057;-49
2023/06/22 07:15:51;;;;;;;10.18;7.68;;;;;;;32.84;33.41;101941.31;5030492;28;20163;-49
2023/06/22 07:18:16;;;;;;;11.27;7.90;;;;;;;33.38;32.37;101930.63;5030105;28;20407;-49
2023/06/22 07:20:42;;;;;;;11.18;8.57;;;;;;;32.98;33.40;101930.50;5031587;28;20040;-52
2023/06/22 07:23:07;;;;;;;11.65;8.35;;;;;;;33.28;32.84;101940.31;5031812;28;20030;-48
2023/06/22 07:25:33;;;;;;;9.55;6.88;;;;;;;33.58;33.43;101932.91;5031054;28;20120;-50
2023/06/22 07:28:03;;;;;;;11.48;7.22;;;;;;;34.12;30.87;101931.03;5030348;28;20041;-47
2023/06/22 07:30:29;;;;;;;10.32;7.47;;;;;;;33.47;31.47;101934.59;5025786;28;20034;-49
2023/06/22 07:32:55;;;;;;;8.73;6.80;;;;;;;33.07;31.20;101939.84;5030738;28;20116;-47
2023/06/22 07:35:20;;;;;;;8.50;5.90;;;;;;;33.52;31.60;101933.31;5029956;28;20144;-48
2023/06/22 07:37:46;;;;;;;7.78;5.40;;;;;;;33.43;31.31;101932.06;5029935;28;20037;-47
2023/06/22 07:40:12;;;;;;;9.05;6.85;;;;;;;33.70;31.08;101924.00;5030464;28;20395;-47
2023/06/22 07:42:38;;;;;;;9.38;6.60;;;;;;;34.14;29.94;101926.38;5029816;28;20037;-53
2023/06/22 07:45:04;;;;;;;8.23;6.65;;;;;;;33.45;31.67;101923.00;5030203;28;20036;-49
2023/06/22 07:47:30;;;;;;;11.15;8.10;;;;;;;33.43;32.78;101923.94;5029391;28;20067;-50
2023/06/22 07:50:00;;;;;;;8.65;6.30;;;;;;;34.36;30.97;101905.97;5028944;28;20488;-48
2023/06/22 07:52:26;;;;;;;10.73;7.25;;;;;;;33.90;31.17;101909.13;5029654;28;20559;-47
2023/06/22 07:54:52;;;;;;;9.98;7.32;;;;;;;34.22;30.68;101905.09;5030077;28;20121;-48
2023/06/22 07:57:17;;;;;;;13.77;7.30;;;;;;;33.62;31.56;101901.97;5029276;28;20029;-47
2023/06/22 07:59:43;;;;;;;8.43;6.40;;;;;;;34.17;30.34;101903.63;5029788;28;20030;-46
2023/06/22 08:02:09;;;;;;;9.25;6.78;;;;;;;34.45;29.56;101902.63;5030326;28;20057;-48
2023/06/22 08:04:34;;;;;;;11.13;7.35;;;;;;;33.70;30.50;101901.50;5029325;28;20076;-50
2023/06/22 08:07:00;;;;;;;10.45;7.20;;;;;;;33.28;30.69;101895.25;5029929;28;20061;-47
2023/06/22 08:09:28;;;;;;;10.80;7.15;;;;;;;34.08;30.04;101902.47;5029636;28;20034;-47
2023/06/22 08:11:55;;;;;;;10.68;6.70;;;;;;;32.95;31.85;101898.25;5030501;28;20531;-47
2023/06/22 08:14:20;;;;;;;10.35;7.22;;;;;;;32.29;32.88;101906.03;5029610;28;20041;-52
2023/06/22 08:16:46;;;;;;;9.98;7.07;;;;;;;32.42;32.09;101906.16;5029341;28;20033;-46
2023/06/22 08:19:11;;;;;;;8.50;5.70;;;;;;;33.22;31.86;101900.19;5029508;28;20042;-50
2023/06/22 08:21:37;;;;;;;8.52;6.72;;;;;;;33.17;31.86;101880.66;5029377;28;20030;-50
2023/06/22 08:24:03;;;;;;;7.55;6.15;;;;;;;33.14;31.67;101892.53;5029424;28;20040;-48
2023/06/22 08:26:28;;;;;;;7.50;5.70;;;;;;;33.41;30.68;101885.38;5028718;28;20037;-47
2023/06/22 08:28:54;;;;;;;6.13;4.82;;;;;;;33.28;30.39;101889.84;5029658;28;20029;-43
2023/06/22 08:31:19;;;;;;;6.05;4.50;;;;;;;33.64;29.20;101881.09;5028066;28;20037;-53
2023/06/22 08:33:46;;;;;;;7.82;5.30;;;;;;;33.45;29.44;101886.00;5029090;28;20025;-50
2023/06/22 08:36:13;;;;;;;7.68;4.72;;;;;;;33.50;29.22;101886.56;5028863;28;20041;-47
2023/06/22 08:38:38;;;;;;;5.00;3.53;;;;;;;33.21;28.74;101882.22;5028800;28;20034;-49
2023/06/22 08:41:03;;;;;;;4.97;3.40;;;;;;;32.78;29.33;101884.09;5028988;28;20615;-48
2023/06/22 08:43:29;;;;;;;5.57;3.10;;;;;;;32.42;30.55;101887.25;5028829;28;20492;-47
2023/06/22 08:45:54;;;;;;;5.03;3.50;;;;;;;31.84;30.94;101888.06;5029005;28;20397;-51
2023/06/22 08:48:19;;;;;;;4.25;3.33;;;;;;;31.26;31.25;101886.06;5028829;28;20057;-51
2023/06/22 08:50:45;;;;;;;5.32;4.00;;;;;;;31.49;31.85;101879.31;5029108;28;20037;-49
2023/06/22 08:53:10;;;;;;;7.93;4.43;;;;;;;30.98;32.98;101885.84;5029160;28;20029;-52
2023/06/22 08:55:35;;;;;;;6.75;5.28;;;;;;;31.28;33.47;101876.06;5028152;28;20048;-45
2023/06/22 08:58:01;;;;;;;8.43;5.68;;;;;;;30.84;34.38;101881.22;5029063;28;20030;-46
2023/06/22 09:00:28;;;;;;;9.90;6.80;;;;;;;31.17;34.13;101880.34;5028862;28;20037;-47
2023/06/22 09:02:58;;;;;;;8.02;5.75;;;;;;;31.41;33.55;101873.53;5032560;28;20403;-46
2023/06/22 09:05:25;;;;;;;8.80;6.05;;;;;;;31.07;35.19;101876.41;5032858;28;20037;-49
2023/06/22 09:07:51;;;;;;;17.75;7.93;;;;;;;30.57;36.92;101871.97;5031163;28;20076;-52
2023/06/22 09:10:16;;;;;;;11.98;8.35;;;;;;;31.27;36.02;101865.38;5033025;28;20488;-48
2023/06/22 09:12:42;;;;;;;10.02;7.53;;;;;;;31.77;35.46;101865.16;5033005;28;20033;-52
2023/06/22 09:15:08;;;;;;;13.32;10.23;;;;;;;31.21;35.33;101866.59;5033161;28;20590;-52
2023/06/22 09:17:34;;;;;;;10.90;7.13;;;;;;;31.66;35.66;101867.59;5031944;28;20118;-48
2023/06/22 09:19:59;;;;;;;12.48;8.57;;;;;;;31.04;36.29;101872.91;5033054;28;20109;-49
2023/06/22 09:22:28;;;;;;;14.23;9.55;;;;;;;31.29;36.07;101858.91;5032436;28;20416;-46
2023/06/22 09:24:54;;;;;;;12.05;8.07;;;;;;;31.28;37.12;101867.13;5033062;28;20133;-50
2023/06/22 09:27:19;;;;;;;13.80;8.77;;;;;;;31.00;35.66;101862.38;5031961;28;20037;-48
2023/06/22 09:29:45;;;;;;;11.32;7.72;;;;;;;31.21;35.79;101866.59;5032676;28;20095;-49
2023/06/22 09:32:10;;;;;;;11.95;8.95;;;;;;;31.22;36.15;101873.72;5032868;28;20061;-51
2023/06/22 09:34:35;;;;;;;13.73;7.93;;;;;;;30.60;36.18;101871.81;5032778;28;20488;-46
2023/06/22 09:37:01;;;;;;;8.93;5.82;;;;;;;31.23;34.94;101863.81;5031837;28;20514;-48
2023/06/22 09:39:26;;;;;;;9.85;7.55;;;;;;;30.64;35.38;101860.78;5031262;28;20059;-46
2023/06/22 09:41:52;;;;;;;9.30;5.45;;;;;;;31.38;34.67;101850.31;5032742;28;20411;-46
2023/06/22 09:44:17;;;;;;;8.48;5.97;;;;;;;31.39;33.95;101848.50;5030867;28;20041;-49
2023/06/22 09:46:43;;;;;;;9.38;6.40;;;;;;;30.97;34.98;101846.41;5031788;28;20052;-51
2023/06/22 09:49:09;;;;;;;7.70;5.88;;;;;;;31.34;35.19;101847.91;5032487;28;20451;-45
2023/06/22 09:51:34;;;;;;;7.70;6.05;;;;;;;31.20;33.97;101843.28;5032304;28;20041;-47
2023/06/22 09:53:59;;;;;;;13.43;8.30;;;;;;;30.68;35.28;101833.72;5032373;28;20033;-49
2023/06/22 09:56:28;;;;;;;10.07;6.50;;;;;;;31.11;34.97;101829.50;5031425;28;20065;-45
2023/06/22 09:58:53;;;;;;;7.55;4.78;;;;;;;30.83;33.32;101832.84;5032399;28;20781;-47
2023/06/22 10:01:18;;;;;;;9.02;4.80;;;;;;;30.81;33.77;101823.97;5032138;28;20037;-49
2023/06/22 10:03:44;;;;;;;5.88;4.30;;;;;;;30.95;32.48;101829.47;5032196;28;20091;-47
2023/06/22 10:06:09;;;;;;;8.98;7.25;;;;;;;30.90;34.33;101829.72;5032231;28;20508;-48
2023/06/22 10:08:35;;;;;;;9.48;7.30;;;;;;;31.09;35.11;101832.28;5031628;28;20392;-47
2023/06/22 10:11:01;;;;;;;11.10;7.85;;;;;;;31.30;35.09;101833.72;5032748;28;20084;-44
2023/06/22 10:13:26;;;;;;;11.48;8.65;;;;;;;31.22;35.38;101838.69;5031223;28;20034;-47
2023/06/22 10:15:53;;;;;;;12.48;10.57;;;;;;;30.46;36.34;101840.22;5032128;28;20412;-45
2023/06/22 10:18:18;;;;;;;13.32;9.52;;;;;;;30.51;37.19;101842.69;5032485;28;20033;-44
2023/06/22 10:20:51;;;;;;;10.80;8.73;;;;;;;30.85;36.35;101839.88;5032630;28;20040;-43
2023/06/22 10:23:16;;;;;;;15.20;8.73;;;;;;;30.85;35.81;101844.41;5031900;28;20052;-47
2023/06/22 10:25:41;;;;;;;10.77;7.78;;;;;;;31.02;35.23;101847.00;5032315;28;20025;-45
2023/06/22 10:28:07;;;;;;;10.30;6.90;;;;;;;31.06;35.45;101842.34;5032337;28;20120;-47
2023/06/22 10:30:32;;;;;;;12.65;9.43;;;;;;;30.69;35.74;101841.69;5031836;28;20038;-44
2023/06/22 10:32:58;;;;;;;12.98;9.07;;;;;;;31.03;35.17;101841.53;5029618;28;20087;-48
2023/06/22 10:35:23;;;;;;;11.70;8.15;;;;;;;31.05;35.43;101841.47;5031037;28;20037;-49
2023/06/22 10:37:49;;;;;;;13.32;10.43;;;;;;;31.00;35.69;101838.13;5031346;28;20113;-47
2023/06/22 10:40:15;;;;;;;11.40;8.30;;;;;;;30.68;36.02;101831.84;5031519;28;20527;-47
2023/06/22 10:42:41;;;;;;;12.88;9.70;;;;;;;30.70;36.81;101840.72;5031196;28;20036;-45
2023/06/22 10:45:08;;;;;;;10.15;8.30;;;;;;;31.13;37.02;101836.53;5030065;28;20037;-46
2023/06/22 10:47:33;;;;;;;14.05;9.45;;;;;;;30.91;36.68;101835.97;5030602;28;20042;-44
2023/06/22 10:49:58;;;;;;;10.07;8.13;;;;;;;30.62;35.24;101837.59;5031807;28;20466;-50
2023/06/22 10:52:24;;;;;;;10.98;7.43;;;;;;;30.78;35.85;101843.88;5032977;28;20069;-52
2023/06/22 10:54:49;;;;;;;11.95;8.40;;;;;;;30.88;35.85;101850.47;5035980;28;20025;-44
2023/06/22 10:57:15;;;;;;;13.20;9.82;;;;;;;30.80;36.15;101843.81;5034642;28;20511;-45
2023/06/22 10:59:40;;;;;;;11.43;8.27;;;;;;;30.88;35.23;101839.69;5034324;28;20403;-44
2023/06/22 11:02:05;;;;;;;13.35;8.95;;;;;;;30.69;34.80;101841.69;5032000;28;20112;-43
2023/06/22 11:04:31;;;;;;;10.70;7.43;;;;;;;30.66;35.24;101843.69;5030126;28;20038;-45
2023/06/22 11:06:56;;;;;;;12.35;8.00;;;;;;;30.53;36.14;101846.19;5035129;28;20049;-47
2023/06/22 11:09:22;;;;;;;13.00;9.05;;;;;;;30.49;37.50;101850.00;5036295;28;20484;-46
2023/06/22 11:11:48;;;;;;;15.82;10.38;;;;;;;30.31;37.85;101843.75;5035958;28;20083;-47